KDPG/DPG METAR and TAF weather

Enter ICAO airport designator
Station Type Date Time Source
KDPG METAR 2018/12/13 15:00 UTC NOAA

KDPG 131500Z 15005KT 50SM FEW200 FEW250 M16/M17 A3048 RMK SLP370 T11591174 51005


Station Type Date Time Source
KDPG Decoded METAR 2018/12/13 15:00 UTC NOAA

Dugway Proving Grounds, UT, United States (KDPG) 40-10N 112-56W 1325M
Dec 13, 2018 - 10:00 AM EST / 2018.12.13 1500 UTC
Wind: from the SSE (150 degrees) at 6 MPH (5 KT):0
Visibility: 50 mile(s):0
Sky conditions: mostly clear
Temperature: 3.4 F (-15.9 C)
Windchill: -7 F (-22 C):2
Dew Point: 0.7 F (-17.4 C)
Relative Humidity: 88%
Pressure (altimeter): 30.48 in. Hg (1032 hPa)
Pressure tendency: 0.01 inches (0.5 hPa) higher than three hours ago
ob: KDPG 131500Z 15005KT 50SM FEW200 FEW250 M16/M17 A3048 RMK SLP370 T11591174 51005
cycle: 15

Station Type Date Time Source
KDPG TAF UTC NOAA

Error!


Example: see airport list